OIZJ  Jask Airport

Add Bookmark

Jask, Iran

Status
Operational
Latitude Longitude
25° 39' 12" N 57° 47' 57" E
25.653601 57.799301
Local (DST + 5) UTC (GMT + 4)
Jul 29, 2014 12:59 Jul 28, 2014 20:29
Sunrise-Sunset Local UTC
Begin Civil Twilight 05:37 01:07
Sunrise 06:02 01:32
Sunset 07:27 14:57
End Civil Twilight 07:52 15:22

Current Weather

METAR Observed MVFR
OIZJ 281800Z 24004KT 6000 SKC 32/28 Q0995 Mon, Jul 28, 2014 @ 18:00 UTC
(2 Hours, 29 Minutes ago)
Marginal Visual Flight Rules

Decoded METAR

Wind Visibility Clouds Conditions
240° at 4 knots (7 kph) 6000 meters
  • Clear skies
  • No significant weather
Temperatures Readings Precipitation
Current Temp 32°C (90°F)
Dewpoint 28°C (82°F)
Heat Index 45°C (113°F)
Humidity 79%
Altimeter 29.38"Hg
Sea Level Pressure 995mb
Field Elevation 13.12'
None Recorded

Additional weather within a 185.2km radius of OIZJ

Map ICAO Location
OMFJ 159.8km W (248°)

24 Hour Weather History

Loading
-

24 Hour Weather Graphs

Loading
-

CheckWX.com is intended as a tool to help pilots better visualize weather data. It is not intended as a substitute for an official weather briefing obtained from a Flight Service Station. CheckWX.com does not meet the FAA requirements for an official pre-flight weather briefing. Therefore, it's important that pilots still call and obtain an official FSS pre-flight weather briefing.